sensor_id;sensor_type;location;lat;lon;timestamp;temperature;humidity
74294;DHT22;64044;59.904;10.738;2023-08-08T00:01:51;21.40;77.30
74294;DHT22;64044;59.904;10.738;2023-08-08T00:04:17;21.40;77.30
74294;DHT22;64044;59.904;10.738;2023-08-08T00:06:42;21.40;77.30
74294;DHT22;64044;59.904;10.738;2023-08-08T00:09:08;21.40;77.40
74294;DHT22;64044;59.904;10.738;2023-08-08T00:11:34;21.40;77.40
74294;DHT22;64044;59.904;10.738;2023-08-08T00:14:00;21.40;77.50
74294;DHT22;64044;59.904;10.738;2023-08-08T00:16:25;21.40;77.50
74294;DHT22;64044;59.904;10.738;2023-08-08T00:18:51;21.40;77.40
74294;DHT22;64044;59.904;10.738;2023-08-08T00:21:19;21.40;77.50
74294;DHT22;64044;59.904;10.738;2023-08-08T00:23:45;21.30;77.40
74294;DHT22;64044;59.904;10.738;2023-08-08T00:26:11;21.30;77.40
74294;DHT22;64044;59.904;10.738;2023-08-08T00:28:37;21.30;77.40
74294;DHT22;64044;59.904;10.738;2023-08-08T00:31:03;21.30;77.50
74294;DHT22;64044;59.904;10.738;2023-08-08T00:33:29;21.30;77.50
74294;DHT22;64044;59.904;10.738;2023-08-08T00:35:54;21.30;77.50
74294;DHT22;64044;59.904;10.738;2023-08-08T00:38:20;21.30;77.50
74294;DHT22;64044;59.904;10.738;2023-08-08T00:40:46;21.30;77.50
74294;DHT22;64044;59.904;10.738;2023-08-08T00:43:37;21.30;77.50
74294;DHT22;64044;59.904;10.738;2023-08-08T00:46:02;21.40;77.30
74294;DHT22;64044;59.904;10.738;2023-08-08T00:48:30;21.40;76.90
74294;DHT22;64044;59.904;10.738;2023-08-08T00:50:55;21.30;76.60
74294;DHT22;64044;59.904;10.738;2023-08-08T00:53:21;21.30;76.30
74294;DHT22;64044;59.904;10.738;2023-08-08T00:55:48;21.30;76.20
74294;DHT22;64044;59.904;10.738;2023-08-08T00:58:15;21.20;76.00
74294;DHT22;64044;59.904;10.738;2023-08-08T01:00:41;21.20;75.90
74294;DHT22;64044;59.904;10.738;2023-08-08T01:03:07;21.20;75.80
74294;DHT22;64044;59.904;10.738;2023-08-08T01:05:47;21.20;75.90
74294;DHT22;64044;59.904;10.738;2023-08-08T01:08:16;21.20;75.90
74294;DHT22;64044;59.904;10.738;2023-08-08T01:10:43;21.20;75.90
74294;DHT22;64044;59.904;10.738;2023-08-08T01:13:13;21.10;75.70
74294;DHT22;64044;59.904;10.738;2023-08-08T01:15:40;21.10;75.80
74294;DHT22;64044;59.904;10.738;2023-08-08T01:18:08;21.10;75.70
74294;DHT22;64044;59.904;10.738;2023-08-08T01:20:35;21.10;75.70
74294;DHT22;64044;59.904;10.738;2023-08-08T01:25:32;21.10;75.60
74294;DHT22;64044;59.904;10.738;2023-08-08T01:27:58;21.10;75.60
74294;DHT22;64044;59.904;10.738;2023-08-08T01:30:24;21.00;75.50
74294;DHT22;64044;59.904;10.738;2023-08-08T01:32:50;21.00;75.40
74294;DHT22;64044;59.904;10.738;2023-08-08T01:35:16;21.00;75.30
74294;DHT22;64044;59.904;10.738;2023-08-08T01:37:53;21.00;75.30
74294;DHT22;64044;59.904;10.738;2023-08-08T01:40:19;20.90;75.10
74294;DHT22;64044;59.904;10.738;2023-08-08T01:42:48;20.90;75.20
74294;DHT22;64044;59.904;10.738;2023-08-08T01:45:17;20.90;75.10
74294;DHT22;64044;59.904;10.738;2023-08-08T01:47:50;20.90;75.10
74294;DHT22;64044;59.904;10.738;2023-08-08T01:50:16;20.90;75.10
74294;DHT22;64044;59.904;10.738;2023-08-08T01:52:41;20.90;75.20
74294;DHT22;64044;59.904;10.738;2023-08-08T01:55:07;20.90;75.20
74294;DHT22;64044;59.904;10.738;2023-08-08T01:57:33;20.80;75.30
74294;DHT22;64044;59.904;10.738;2023-08-08T01:59:59;20.80;75.20
74294;DHT22;64044;59.904;10.738;2023-08-08T02:02:25;20.80;75.30
74294;DHT22;64044;59.904;10.738;2023-08-08T02:04:51;20.80;76.10
74294;DHT22;64044;59.904;10.738;2023-08-08T02:07:16;20.80;75.30
74294;DHT22;64044;59.904;10.738;2023-08-08T02:09:42;20.80;75.20
74294;DHT22;64044;59.904;10.738;2023-08-08T02:12:08;20.70;75.10
74294;DHT22;64044;59.904;10.738;2023-08-08T02:14:34;20.70;75.10
74294;DHT22;64044;59.904;10.738;2023-08-08T02:16:59;20.70;75.20
74294;DHT22;64044;59.904;10.738;2023-08-08T02:19:25;20.60;75.20
74294;DHT22;64044;59.904;10.738;2023-08-08T02:21:51;20.60;75.40
74294;DHT22;64044;59.904;10.738;2023-08-08T02:24:16;20.60;75.50
74294;DHT22;64044;59.904;10.738;2023-08-08T02:26:42;20.60;75.70
74294;DHT22;64044;59.904;10.738;2023-08-08T02:29:08;20.50;75.70
74294;DHT22;64044;59.904;10.738;2023-08-08T02:31:34;20.50;76.00
74294;DHT22;64044;59.904;10.738;2023-08-08T02:33:59;20.50;76.10
74294;DHT22;64044;59.904;10.738;2023-08-08T02:36:25;20.50;76.20
74294;DHT22;64044;59.904;10.738;2023-08-08T02:38:51;20.50;76.10
74294;DHT22;64044;59.904;10.738;2023-08-08T02:41:19;20.50;76.20
74294;DHT22;64044;59.904;10.738;2023-08-08T02:43:46;20.50;76.30
74294;DHT22;64044;59.904;10.738;2023-08-08T02:46:11;20.40;76.20
74294;DHT22;64044;59.904;10.738;2023-08-08T02:48:37;20.40;76.20
74294;DHT22;64044;59.904;10.738;2023-08-08T02:51:03;20.40;76.20
74294;DHT22;64044;59.904;10.738;2023-08-08T02:53:28;20.40;76.20
74294;DHT22;64044;59.904;10.738;2023-08-08T02:55:54;20.40;76.20
74294;DHT22;64044;59.904;10.738;2023-08-08T02:58:20;20.40;76.30
74294;DHT22;64044;59.904;10.738;2023-08-08T03:00:46;20.40;76.30
74294;DHT22;64044;59.904;10.738;2023-08-08T03:03:11;20.40;76.20
74294;DHT22;64044;59.904;10.738;2023-08-08T03:05:37;20.40;76.20
74294;DHT22;64044;59.904;10.738;2023-08-08T03:08:03;20.40;76.20
74294;DHT22;64044;59.904;10.738;2023-08-08T03:10:28;20.40;76.20
74294;DHT22;64044;59.904;10.738;2023-08-08T03:12:54;20.30;76.10
74294;DHT22;64044;59.904;10.738;2023-08-08T03:15:20;20.40;76.20
74294;DHT22;64044;59.904;10.738;2023-08-08T03:17:46;20.40;76.20
74294;DHT22;64044;59.904;10.738;2023-08-08T03:20:11;20.30;76.10
74294;DHT22;64044;59.904;10.738;2023-08-08T03:22:37;20.30;76.20
74294;DHT22;64044;59.904;10.738;2023-08-08T03:25:03;20.30;76.30
74294;DHT22;64044;59.904;10.738;2023-08-08T03:27:30;20.30;76.40
74294;DHT22;64044;59.904;10.738;2023-08-08T03:29:56;20.30;76.50
74294;DHT22;64044;59.904;10.738;2023-08-08T03:32:22;20.30;77.30
74294;DHT22;64044;59.904;10.738;2023-08-08T03:34:48;20.30;76.50
74294;DHT22;64044;59.904;10.738;2023-08-08T03:37:14;20.30;76.50
74294;DHT22;64044;59.904;10.738;2023-08-08T03:39:39;20.30;76.60
74294;DHT22;64044;59.904;10.738;2023-08-08T03:42:05;20.30;76.60
74294;DHT22;64044;59.904;10.738;2023-08-08T03:44:31;20.30;76.60
74294;DHT22;64044;59.904;10.738;2023-08-08T03:46:57;20.20;76.60
74294;DHT22;64044;59.904;10.738;2023-08-08T03:49:22;20.30;76.60
74294;DHT22;64044;59.904;10.738;2023-08-08T03:51:48;20.30;76.60
74294;DHT22;64044;59.904;10.738;2023-08-08T03:54:14;20.30;76.60
74294;DHT22;64044;59.904;10.738;2023-08-08T03:56:41;20.20;76.40
74294;DHT22;64044;59.904;10.738;2023-08-08T03:59:06;20.30;76.30
74294;DHT22;64044;59.904;10.738;2023-08-08T04:01:32;20.30;76.20
74294;DHT22;64044;59.904;10.738;2023-08-08T04:03:58;20.30;76.00
74294;DHT22;64044;59.904;10.738;2023-08-08T04:06:24;20.30;75.80
74294;DHT22;64044;59.904;10.738;2023-08-08T04:08:49;20.30;75.60
74294;DHT22;64044;59.904;10.738;2023-08-08T04:11:16;20.30;75.40
74294;DHT22;64044;59.904;10.738;2023-08-08T04:13:41;20.30;75.20
74294;DHT22;64044;59.904;10.738;2023-08-08T04:16:07;20.30;75.00
74294;DHT22;64044;59.904;10.738;2023-08-08T04:18:33;20.30;74.80
74294;DHT22;64044;59.904;10.738;2023-08-08T04:20:59;20.30;74.60
74294;DHT22;64044;59.904;10.738;2023-08-08T04:23:24;20.30;74.40
74294;DHT22;64044;59.904;10.738;2023-08-08T04:25:52;20.30;74.30
74294;DHT22;64044;59.904;10.738;2023-08-08T04:28:18;20.30;74.10
74294;DHT22;64044;59.904;10.738;2023-08-08T04:30:43;20.30;74.00
74294;DHT22;64044;59.904;10.738;2023-08-08T04:33:09;20.30;73.90
74294;DHT22;64044;59.904;10.738;2023-08-08T04:35:35;20.30;73.70
74294;DHT22;64044;59.904;10.738;2023-08-08T04:38:01;20.30;73.70
74294;DHT22;64044;59.904;10.738;2023-08-08T04:40:27;20.20;73.50
74294;DHT22;64044;59.904;10.738;2023-08-08T04:42:52;20.20;73.50
74294;DHT22;64044;59.904;10.738;2023-08-08T04:45:18;20.20;73.40
74294;DHT22;64044;59.904;10.738;2023-08-08T04:47:44;20.20;73.50
74294;DHT22;64044;59.904;10.738;2023-08-08T04:50:10;20.30;73.50
74294;DHT22;64044;59.904;10.738;2023-08-08T04:52:36;20.30;73.40
74294;DHT22;64044;59.904;10.738;2023-08-08T04:55:02;20.20;73.30
74294;DHT22;64044;59.904;10.738;2023-08-08T04:57:27;20.30;73.30
74294;DHT22;64044;59.904;10.738;2023-08-08T04:59:53;20.30;73.20
74294;DHT22;64044;59.904;10.738;2023-08-08T05:02:19;20.30;73.10
74294;DHT22;64044;59.904;10.738;2023-08-08T05:04:44;20.30;73.00
74294;DHT22;64044;59.904;10.738;2023-08-08T05:07:10;20.30;72.90
74294;DHT22;64044;59.904;10.738;2023-08-08T05:09:36;20.30;72.80
74294;DHT22;64044;59.904;10.738;2023-08-08T05:12:02;20.40;72.70
74294;DHT22;64044;59.904;10.738;2023-08-08T05:14:27;20.40;72.60
74294;DHT22;64044;59.904;10.738;2023-08-08T05:16:53;20.40;72.70
74294;DHT22;64044;59.904;10.738;2023-08-08T05:19:19;20.40;72.60
74294;DHT22;64044;59.904;10.738;2023-08-08T05:21:44;20.40;72.40
74294;DHT22;64044;59.904;10.738;2023-08-08T05:24:10;20.40;72.30
74294;DHT22;64044;59.904;10.738;2023-08-08T05:26:36;20.40;72.20
74294;DHT22;64044;59.904;10.738;2023-08-08T05:29:01;20.40;72.10
74294;DHT22;64044;59.904;10.738;2023-08-08T05:31:27;20.40;72.00
74294;DHT22;64044;59.904;10.738;2023-08-08T05:33:53;20.40;72.30
74294;DHT22;64044;59.904;10.738;2023-08-08T05:36:19;20.50;71.80
74294;DHT22;64044;59.904;10.738;2023-08-08T05:38:44;20.50;71.70
74294;DHT22;64044;59.904;10.738;2023-08-08T05:41:10;20.50;71.70
74294;DHT22;64044;59.904;10.738;2023-08-08T05:43:36;20.50;71.60
74294;DHT22;64044;59.904;10.738;2023-08-08T05:46:02;20.50;71.50
74294;DHT22;64044;59.904;10.738;2023-08-08T05:48:27;20.60;71.50
74294;DHT22;64044;59.904;10.738;2023-08-08T05:50:53;20.60;71.30
74294;DHT22;64044;59.904;10.738;2023-08-08T05:53:19;20.60;71.20
74294;DHT22;64044;59.904;10.738;2023-08-08T05:55:45;20.60;71.10
74294;DHT22;64044;59.904;10.738;2023-08-08T05:58:10;20.60;70.90
74294;DHT22;64044;59.904;10.738;2023-08-08T06:00:36;20.60;70.70
74294;DHT22;64044;59.904;10.738;2023-08-08T06:03:02;20.70;70.70
74294;DHT22;64044;59.904;10.738;2023-08-08T06:05:27;20.70;70.70
74294;DHT22;64044;59.904;10.738;2023-08-08T06:07:54;20.70;70.60
74294;DHT22;64044;59.904;10.738;2023-08-08T06:10:21;20.70;70.70
74294;DHT22;64044;59.904;10.738;2023-08-08T06:12:47;20.70;70.50
74294;DHT22;64044;59.904;10.738;2023-08-08T06:15:13;20.70;70.30
74294;DHT22;64044;59.904;10.738;2023-08-08T06:17:39;20.80;70.10
74294;DHT22;64044;59.904;10.738;2023-08-08T06:20:05;20.80;70.10
74294;DHT22;64044;59.904;10.738;2023-08-08T06:22:32;20.80;70.00
74294;DHT22;64044;59.904;10.738;2023-08-08T06:24:58;20.80;69.80
74294;DHT22;64044;59.904;10.738;2023-08-08T06:27:23;20.90;69.60
74294;DHT22;64044;59.904;10.738;2023-08-08T06:29:49;20.90;69.60
74294;DHT22;64044;59.904;10.738;2023-08-08T06:32:15;20.90;69.50
74294;DHT22;64044;59.904;10.738;2023-08-08T06:34:41;20.90;69.40
74294;DHT22;64044;59.904;10.738;2023-08-08T06:37:07;21.00;69.30
74294;DHT22;64044;59.904;10.738;2023-08-08T06:39:32;21.00;69.20
74294;DHT22;64044;59.904;10.738;2023-08-08T06:41:59;21.00;69.20
74294;DHT22;64044;59.904;10.738;2023-08-08T06:44:25;21.00;69.00
74294;DHT22;64044;59.904;10.738;2023-08-08T06:46:50;21.00;68.90
74294;DHT22;64044;59.904;10.738;2023-08-08T06:49:16;21.00;68.80
74294;DHT22;64044;59.904;10.738;2023-08-08T06:51:42;21.00;68.70
74294;DHT22;64044;59.904;10.738;2023-08-08T06:54:07;21.00;68.80
74294;DHT22;64044;59.904;10.738;2023-08-08T06:56:33;21.00;68.90
74294;DHT22;64044;59.904;10.738;2023-08-08T06:58:59;21.00;68.90
74294;DHT22;64044;59.904;10.738;2023-08-08T07:01:25;21.10;68.90
74294;DHT22;64044;59.904;10.738;2023-08-08T07:03:50;21.10;68.70
74294;DHT22;64044;59.904;10.738;2023-08-08T07:06:17;21.10;68.70
74294;DHT22;64044;59.904;10.738;2023-08-08T07:08:43;21.10;68.80
74294;DHT22;64044;59.904;10.738;2023-08-08T07:11:09;21.20;68.90
74294;DHT22;64044;59.904;10.738;2023-08-08T07:13:34;21.20;69.20
74294;DHT22;64044;59.904;10.738;2023-08-08T07:16:00;21.30;68.80
74294;DHT22;64044;59.904;10.738;2023-08-08T07:18:26;21.20;68.70
74294;DHT22;64044;59.904;10.738;2023-08-08T07:20:52;21.20;68.60
74294;DHT22;64044;59.904;10.738;2023-08-08T07:23:18;21.30;68.70
74294;DHT22;64044;59.904;10.738;2023-08-08T07:25:45;21.30;68.80
74294;DHT22;64044;59.904;10.738;2023-08-08T07:28:11;21.30;68.80
74294;DHT22;64044;59.904;10.738;2023-08-08T07:30:36;21.30;68.80
74294;DHT22;64044;59.904;10.738;2023-08-08T07:33:02;21.40;68.80
74294;DHT22;64044;59.904;10.738;2023-08-08T07:35:28;21.40;68.80
74294;DHT22;64044;59.904;10.738;2023-08-08T07:37:53;21.40;68.70
74294;DHT22;64044;59.904;10.738;2023-08-08T07:40:20;21.40;68.60
74294;DHT22;64044;59.904;10.738;2023-08-08T07:42:48;21.40;68.60
74294;DHT22;64044;59.904;10.738;2023-08-08T07:45:14;21.50;68.70
74294;DHT22;64044;59.904;10.738;2023-08-08T07:47:40;21.50;68.80
74294;DHT22;64044;59.904;10.738;2023-08-08T07:50:06;21.50;68.50
74294;DHT22;64044;59.904;10.738;2023-08-08T07:52:36;21.50;68.60
74294;DHT22;64044;59.904;10.738;2023-08-08T07:55:03;21.50;68.60
74294;DHT22;64044;59.904;10.738;2023-08-08T07:57:29;21.50;68.70
74294;DHT22;64044;59.904;10.738;2023-08-08T07:59:55;21.50;68.90
74294;DHT22;64044;59.904;10.738;2023-08-08T08:02:21;21.50;68.70
74294;DHT22;64044;59.904;10.738;2023-08-08T08:04:47;21.50;68.80
74294;DHT22;64044;59.904;10.738;2023-08-08T08:07:13;21.50;68.70
74294;DHT22;64044;59.904;10.738;2023-08-08T08:09:39;21.50;68.70
74294;DHT22;64044;59.904;10.738;2023-08-08T08:12:08;21.50;68.70
74294;DHT22;64044;59.904;10.738;2023-08-08T08:14:34;21.50;68.80
74294;DHT22;64044;59.904;10.738;2023-08-08T08:16:59;21.60;68.90
74294;DHT22;64044;59.904;10.738;2023-08-08T08:19:25;21.60;68.80
74294;DHT22;64044;59.904;10.738;2023-08-08T08:21:51;21.60;68.90
74294;DHT22;64044;59.904;10.738;2023-08-08T08:24:16;21.60;68.90
74294;DHT22;64044;59.904;10.738;2023-08-08T08:26:42;21.60;68.90
74294;DHT22;64044;59.904;10.738;2023-08-08T08:29:08;21.60;68.90
74294;DHT22;64044;59.904;10.738;2023-08-08T08:31:34;21.60;68.80
74294;DHT22;64044;59.904;10.738;2023-08-08T08:33:59;21.60;68.70
74294;DHT22;64044;59.904;10.738;2023-08-08T08:36:25;21.60;68.60
74294;DHT22;64044;59.904;10.738;2023-08-08T08:38:52;21.70;68.50
74294;DHT22;64044;59.904;10.738;2023-08-08T08:41:18;21.70;68.50
74294;DHT22;64044;59.904;10.738;2023-08-08T08:43:45;21.70;68.50
74294;DHT22;64044;59.904;10.738;2023-08-08T08:46:12;21.70;68.50
74294;DHT22;64044;59.904;10.738;2023-08-08T08:48:40;21.70;68.50
74294;DHT22;64044;59.904;10.738;2023-08-08T08:51:06;21.70;68.20
74294;DHT22;64044;59.904;10.738;2023-08-08T08:53:32;21.70;68.20
74294;DHT22;64044;59.904;10.738;2023-08-08T08:56:00;21.70;68.10
74294;DHT22;64044;59.904;10.738;2023-08-08T08:58:27;21.70;67.90
74294;DHT22;64044;59.904;10.738;2023-08-08T09:00:54;21.80;68.10
74294;DHT22;64044;59.904;10.738;2023-08-08T09:03:21;21.80;68.00
74294;DHT22;64044;59.904;10.738;2023-08-08T09:05:47;21.80;68.10
74294;DHT22;64044;59.904;10.738;2023-08-08T09:08:13;21.90;67.90
74294;DHT22;64044;59.904;10.738;2023-08-08T09:10:40;21.90;67.80
74294;DHT22;64044;59.904;10.738;2023-08-08T09:13:06;21.90;67.80
74294;DHT22;64044;59.904;10.738;2023-08-08T09:15:33;22.00;67.70
74294;DHT22;64044;59.904;10.738;2023-08-08T09:17:59;22.00;67.50
74294;DHT22;64044;59.904;10.738;2023-08-08T09:20:26;22.10;67.50
74294;DHT22;64044;59.904;10.738;2023-08-08T09:22:56;22.20;67.40
74294;DHT22;64044;59.904;10.738;2023-08-08T09:25:22;22.20;67.10
74294;DHT22;64044;59.904;10.738;2023-08-08T09:27:50;22.30;66.90
74294;DHT22;64044;59.904;10.738;2023-08-08T09:30:16;22.40;66.90
74294;DHT22;64044;59.904;10.738;2023-08-08T09:32:43;22.40;66.60
74294;DHT22;64044;59.904;10.738;2023-08-08T09:35:10;22.40;66.30
74294;DHT22;64044;59.904;10.738;2023-08-08T09:37:37;22.50;66.30
74294;DHT22;64044;59.904;10.738;2023-08-08T09:40:05;22.50;66.00
74294;DHT22;64044;59.904;10.738;2023-08-08T09:42:33;22.60;65.60
74294;DHT22;64044;59.904;10.738;2023-08-08T09:45:00;22.60;65.40
74294;DHT22;64044;59.904;10.738;2023-08-08T09:47:26;22.60;65.10
74294;DHT22;64044;59.904;10.738;2023-08-08T09:50:00;22.60;64.80
74294;DHT22;64044;59.904;10.738;2023-08-08T09:52:28;22.60;64.40
74294;DHT22;64044;59.904;10.738;2023-08-08T09:54:54;22.60;64.50
74294;DHT22;64044;59.904;10.738;2023-08-08T09:57:22;22.60;64.40
74294;DHT22;64044;59.904;10.738;2023-08-08T09:59:48;22.60;64.30
74294;DHT22;64044;59.904;10.738;2023-08-08T10:02:15;22.60;64.50
74294;DHT22;64044;59.904;10.738;2023-08-08T10:04:47;22.60;64.30
74294;DHT22;64044;59.904;10.738;2023-08-08T10:07:14;22.60;64.40
74294;DHT22;64044;59.904;10.738;2023-08-08T10:09:40;22.60;64.70
74294;DHT22;64044;59.904;10.738;2023-08-08T10:12:07;22.60;64.50
74294;DHT22;64044;59.904;10.738;2023-08-08T10:14:36;22.50;64.50
74294;DHT22;64044;59.904;10.738;2023-08-08T10:17:04;22.50;64.40
74294;DHT22;64044;59.904;10.738;2023-08-08T10:19:30;22.40;64.30
74294;DHT22;64044;59.904;10.738;2023-08-08T10:21:59;22.40;64.30
74294;DHT22;64044;59.904;10.738;2023-08-08T10:24:26;22.40;64.30
74294;DHT22;64044;59.904;10.738;2023-08-08T10:29:19;22.40;64.70
74294;DHT22;64044;59.904;10.738;2023-08-08T10:31:59;22.30;64.80
74294;DHT22;64044;59.904;10.738;2023-08-08T10:34:40;22.30;64.90
74294;DHT22;64044;59.904;10.738;2023-08-08T10:37:13;22.30;64.80
74294;DHT22;64044;59.904;10.738;2023-08-08T10:39:53;22.20;64.80
74294;DHT22;64044;59.904;10.738;2023-08-08T10:42:20;22.20;64.60
74294;DHT22;64044;59.904;10.738;2023-08-08T10:44:55;22.20;65.00
74294;DHT22;64044;59.904;10.738;2023-08-08T10:49:58;22.10;65.20
74294;DHT22;64044;59.904;10.738;2023-08-08T10:52:24;22.10;65.00
74294;DHT22;64044;59.904;10.738;2023-08-08T10:54:53;22.10;65.20
74294;DHT22;64044;59.904;10.738;2023-08-08T10:57:25;22.10;65.20
74294;DHT22;64044;59.904;10.738;2023-08-08T10:59:52;22.00;65.20
74294;DHT22;64044;59.904;10.738;2023-08-08T11:02:20;22.00;65.40
74294;DHT22;64044;59.904;10.738;2023-08-08T11:04:46;22.10;65.50
74294;DHT22;64044;59.904;10.738;2023-08-08T11:07:14;22.10;65.60
74294;DHT22;64044;59.904;10.738;2023-08-08T11:09:40;22.20;65.50
74294;DHT22;64044;59.904;10.738;2023-08-08T11:12:12;22.20;65.50
74294;DHT22;64044;59.904;10.738;2023-08-08T11:14:38;22.30;65.50
74294;DHT22;64044;59.904;10.738;2023-08-08T11:17:04;22.30;65.40
74294;DHT22;64044;59.904;10.738;2023-08-08T11:19:30;22.40;65.40
74294;DHT22;64044;59.904;10.738;2023-08-08T11:21:57;22.50;65.50
74294;DHT22;64044;59.904;10.738;2023-08-08T11:24:51;22.50;65.60
74294;DHT22;64044;59.904;10.738;2023-08-08T11:27:17;22.60;65.40
74294;DHT22;64044;59.904;10.738;2023-08-08T11:29:56;22.70;65.50
74294;DHT22;64044;59.904;10.738;2023-08-08T11:32:25;22.80;64.80
74294;DHT22;64044;59.904;10.738;2023-08-08T11:34:51;22.80;65.10
74294;DHT22;64044;59.904;10.738;2023-08-08T11:37:17;22.90;65.00
74294;DHT22;64044;59.904;10.738;2023-08-08T11:39:43;22.90;64.90
74294;DHT22;64044;59.904;10.738;2023-08-08T11:42:09;22.90;64.80
74294;DHT22;64044;59.904;10.738;2023-08-08T11:44:35;23.00;64.80
74294;DHT22;64044;59.904;10.738;2023-08-08T11:47:02;23.00;64.60
74294;DHT22;64044;59.904;10.738;2023-08-08T11:49:28;23.00;64.60
74294;DHT22;64044;59.904;10.738;2023-08-08T11:51:56;23.00;64.60
74294;DHT22;64044;59.904;10.738;2023-08-08T11:54:22;23.00;64.40
74294;DHT22;64044;59.904;10.738;2023-08-08T11:56:48;23.00;64.40
74294;DHT22;64044;59.904;10.738;2023-08-08T11:59:13;23.00;64.30
74294;DHT22;64044;59.904;10.738;2023-08-08T12:01:41;23.00;64.20
74294;DHT22;64044;59.904;10.738;2023-08-08T12:04:08;23.00;64.00
74294;DHT22;64044;59.904;10.738;2023-08-08T12:06:37;23.00;64.00
74294;DHT22;64044;59.904;10.738;2023-08-08T12:09:06;23.00;63.50
74294;DHT22;64044;59.904;10.738;2023-08-08T12:11:36;23.00;63.40
74294;DHT22;64044;59.904;10.738;2023-08-08T12:14:08;23.00;62.50
74294;DHT22;64044;59.904;10.738;2023-08-08T12:16:38;22.90;62.60
74294;DHT22;64044;59.904;10.738;2023-08-08T12:19:08;23.00;62.50
74294;DHT22;64044;59.904;10.738;2023-08-08T12:21:36;23.00;62.50
74294;DHT22;64044;59.904;10.738;2023-08-08T12:24:02;23.00;62.90
74294;DHT22;64044;59.904;10.738;2023-08-08T12:26:28;23.00;62.20
74294;DHT22;64044;59.904;10.738;2023-08-08T12:28:54;23.10;62.30
74294;DHT22;64044;59.904;10.738;2023-08-08T12:31:20;23.10;62.30
74294;DHT22;64044;59.904;10.738;2023-08-08T12:33:46;23.10;62.40
74294;DHT22;64044;59.904;10.738;2023-08-08T12:36:12;23.20;62.50
74294;DHT22;64044;59.904;10.738;2023-08-08T12:38:38;23.20;62.40
74294;DHT22;64044;59.904;10.738;2023-08-08T12:41:03;23.20;62.40
74294;DHT22;64044;59.904;10.738;2023-08-08T12:43:29;23.20;62.40
74294;DHT22;64044;59.904;10.738;2023-08-08T12:45:55;23.20;62.40
74294;DHT22;64044;59.904;10.738;2023-08-08T12:48:21;23.20;62.70
74294;DHT22;64044;59.904;10.738;2023-08-08T12:50:46;23.20;62.70
74294;DHT22;64044;59.904;10.738;2023-08-08T12:53:38;23.30;62.90
74294;DHT22;64044;59.904;10.738;2023-08-08T12:56:04;23.30;63.10
74294;DHT22;64044;59.904;10.738;2023-08-08T12:58:29;23.40;63.00
74294;DHT22;64044;59.904;10.738;2023-08-08T13:00:55;23.50;63.30
74294;DHT22;64044;59.904;10.738;2023-08-08T13:03:21;23.50;63.30
74294;DHT22;64044;59.904;10.738;2023-08-08T13:05:47;23.60;63.10
74294;DHT22;64044;59.904;10.738;2023-08-08T13:08:12;23.70;62.90
74294;DHT22;64044;59.904;10.738;2023-08-08T13:10:39;23.80;63.00
74294;DHT22;64044;59.904;10.738;2023-08-08T13:13:05;23.90;62.90
74294;DHT22;64044;59.904;10.738;2023-08-08T13:15:31;23.90;62.70
74294;DHT22;64044;59.904;10.738;2023-08-08T13:17:57;24.00;62.50
74294;DHT22;64044;59.904;10.738;2023-08-08T13:20:25;24.10;62.50
74294;DHT22;64044;59.904;10.738;2023-08-08T13:22:51;24.10;62.20
74294;DHT22;64044;59.904;10.738;2023-08-08T13:25:17;24.20;62.10
74294;DHT22;64044;59.904;10.738;2023-08-08T13:27:44;24.20;61.80
74294;DHT22;64044;59.904;10.738;2023-08-08T13:30:10;24.20;61.60
74294;DHT22;64044;59.904;10.738;2023-08-08T13:32:37;24.30;61.50
74294;DHT22;64044;59.904;10.738;2023-08-08T13:35:04;24.30;61.50
74294;DHT22;64044;59.904;10.738;2023-08-08T13:37:30;24.30;61.50
74294;DHT22;64044;59.904;10.738;2023-08-08T13:39:56;24.30;61.40
74294;DHT22;64044;59.904;10.738;2023-08-08T13:42:21;24.30;61.20
74294;DHT22;64044;59.904;10.738;2023-08-08T13:44:47;24.30;61.00
74294;DHT22;64044;59.904;10.738;2023-08-08T13:47:13;24.30;60.80
74294;DHT22;64044;59.904;10.738;2023-08-08T13:49:38;24.30;60.70
74294;DHT22;64044;59.904;10.738;2023-08-08T13:52:04;24.30;60.40
74294;DHT22;64044;59.904;10.738;2023-08-08T13:54:30;24.20;59.80
74294;DHT22;64044;59.904;10.738;2023-08-08T13:56:56;24.10;59.60
74294;DHT22;64044;59.904;10.738;2023-08-08T13:59:22;24.10;59.80
74294;DHT22;64044;59.904;10.738;2023-08-08T14:01:47;24.00;59.70
74294;DHT22;64044;59.904;10.738;2023-08-08T14:04:13;23.90;59.80
74294;DHT22;64044;59.904;10.738;2023-08-08T14:06:39;23.90;60.00
74294;DHT22;64044;59.904;10.738;2023-08-08T14:09:05;23.80;60.00
74294;DHT22;64044;59.904;10.738;2023-08-08T14:11:31;23.80;60.20
74294;DHT22;64044;59.904;10.738;2023-08-08T14:13:56;23.70;60.20
74294;DHT22;64044;59.904;10.738;2023-08-08T14:16:22;23.70;60.50
74294;DHT22;64044;59.904;10.738;2023-08-08T14:18:48;23.70;60.40
74294;DHT22;64044;59.904;10.738;2023-08-08T14:21:14;23.70;60.20
74294;DHT22;64044;59.904;10.738;2023-08-08T14:23:40;23.60;60.10
74294;DHT22;64044;59.904;10.738;2023-08-08T14:26:06;23.60;60.40
74294;DHT22;64044;59.904;10.738;2023-08-08T14:28:31;23.60;60.30
74294;DHT22;64044;59.904;10.738;2023-08-08T14:30:57;23.50;60.60
74294;DHT22;64044;59.904;10.738;2023-08-08T14:33:23;23.50;60.70
74294;DHT22;64044;59.904;10.738;2023-08-08T14:35:49;23.50;60.70
74294;DHT22;64044;59.904;10.738;2023-08-08T14:38:15;23.50;60.90
74294;DHT22;64044;59.904;10.738;2023-08-08T14:40:41;23.50;61.30
74294;DHT22;64044;59.904;10.738;2023-08-08T14:43:07;23.40;61.40
74294;DHT22;64044;59.904;10.738;2023-08-08T14:45:37;23.40;61.50
74294;DHT22;64044;59.904;10.738;2023-08-08T14:48:04;23.40;61.60
74294;DHT22;64044;59.904;10.738;2023-08-08T14:50:31;23.40;61.80
74294;DHT22;64044;59.904;10.738;2023-08-08T14:52:56;23.30;61.70
74294;DHT22;64044;59.904;10.738;2023-08-08T14:55:22;23.40;61.90
74294;DHT22;64044;59.904;10.738;2023-08-08T14:57:48;23.40;61.90
74294;DHT22;64044;59.904;10.738;2023-08-08T15:00:14;23.30;61.80
74294;DHT22;64044;59.904;10.738;2023-08-08T15:02:40;23.30;61.90
74294;DHT22;64044;59.904;10.738;2023-08-08T15:05:05;23.40;61.90
74294;DHT22;64044;59.904;10.738;2023-08-08T15:07:31;23.30;62.00
74294;DHT22;64044;59.904;10.738;2023-08-08T15:09:57;23.30;62.00
74294;DHT22;64044;59.904;10.738;2023-08-08T15:12:23;23.30;61.90
74294;DHT22;64044;59.904;10.738;2023-08-08T15:14:48;23.30;62.00
74294;DHT22;64044;59.904;10.738;2023-08-08T15:17:16;23.30;62.00
74294;DHT22;64044;59.904;10.738;2023-08-08T15:19:41;23.30;62.00